createdAt,value
2017-06-13T00:02:15.982Z,19.60
2017-06-13T00:04:43.543Z,19.40
2017-06-13T00:07:11.075Z,19.60
2017-06-13T00:09:38.603Z,19.50
2017-06-13T00:12:06.935Z,19.40
2017-06-13T00:14:34.468Z,19.40
2017-06-13T00:17:02.019Z,19.40
2017-06-13T00:19:29.560Z,19.40
2017-06-13T00:21:57.887Z,19.40
2017-06-13T00:24:25.410Z,19.30
2017-06-13T00:26:52.942Z,19.50
2017-06-13T00:29:20.563Z,19.20
2017-06-13T00:31:48.098Z,19.00
2017-06-13T00:34:15.622Z,19.10
2017-06-13T00:36:43.959Z,19.00
2017-06-13T00:39:11.519Z,19.00
2017-06-13T00:41:39.076Z,19.10
2017-06-13T00:44:06.635Z,19.40
2017-06-13T00:46:34.195Z,19.60
2017-06-13T00:49:01.739Z,19.70
2017-06-13T00:51:29.308Z,19.60
2017-06-13T00:53:56.867Z,19.50
2017-06-13T00:56:24.426Z,19.60
2017-06-13T00:58:51.959Z,19.20
2017-06-13T01:01:19.487Z,19.10
2017-06-13T01:03:47.819Z,18.70
2017-06-13T01:06:15.380Z,18.70
2017-06-13T01:08:42.946Z,18.70
2017-06-13T01:11:10.477Z,18.60
2017-06-13T01:13:38.059Z,18.40
2017-06-13T01:16:05.617Z,18.30
2017-06-13T01:18:33.177Z,18.10
2017-06-13T01:21:00.731Z,18.20
2017-06-13T01:23:28.295Z,18.20
2017-06-13T01:25:55.856Z,18.10
2017-06-13T01:28:23.389Z,18.40
2017-06-13T01:30:50.966Z,18.40
2017-06-13T01:33:18.529Z,18.70
2017-06-13T01:35:46.087Z,19.10
2017-06-13T01:38:13.643Z,18.80
2017-06-13T01:40:41.171Z,18.70
2017-06-13T01:43:08.699Z,18.60
2017-06-13T01:45:36.291Z,18.70
2017-06-13T01:48:03.878Z,18.50
2017-06-13T01:50:31.443Z,18.40
2017-06-13T01:52:58.999Z,18.30
2017-06-13T01:55:26.555Z,18.50
2017-06-13T01:57:54.319Z,18.40
2017-06-13T02:00:21.876Z,18.40
2017-06-13T02:02:49.440Z,18.40
2017-06-13T02:05:16.999Z,18.30
2017-06-13T02:07:44.550Z,18.40
2017-06-13T02:10:12.083Z,18.40
2017-06-13T02:12:39.678Z,18.50
2017-06-13T02:15:07.235Z,18.50
2017-06-13T02:17:34.791Z,18.20
2017-06-13T02:20:02.337Z,18.20
2017-06-13T02:22:29.873Z,18.50
2017-06-13T02:24:57.467Z,18.40
2017-06-13T02:27:24.999Z,18.40
2017-06-13T02:29:52.583Z,18.40
2017-06-13T02:32:20.112Z,18.40
2017-06-13T02:34:47.703Z,18.40
2017-06-13T02:37:15.259Z,18.60
2017-06-13T02:39:42.824Z,18.30
2017-06-13T02:42:10.375Z,18.10
2017-06-13T02:44:37.906Z,18.20
2017-06-13T02:47:05.495Z,18.10
2017-06-13T02:49:33.055Z,18.00
2017-06-13T02:52:00.615Z,18.10
2017-06-13T02:54:28.172Z,18.20
2017-06-13T02:56:55.744Z,18.40
2017-06-13T02:59:23.458Z,18.50
2017-06-13T03:01:51.067Z,18.30
2017-06-13T03:04:18.611Z,18.50
2017-06-13T03:06:46.174Z,18.40
2017-06-13T03:09:13.723Z,18.10
2017-06-13T03:11:41.269Z,17.90
2017-06-13T03:14:08.803Z,18.00
2017-06-13T03:16:37.131Z,18.00
2017-06-13T03:19:04.655Z,18.00
2017-06-13T03:21:32.184Z,17.80
2017-06-13T03:24:00.514Z,18.00
2017-06-13T03:26:28.075Z,18.00
2017-06-13T03:28:55.635Z,17.90
2017-06-13T03:31:23.201Z,17.70
2017-06-13T03:33:50.754Z,17.70
2017-06-13T03:36:18.315Z,17.80
2017-06-13T03:38:45.874Z,17.70
2017-06-13T03:41:13.403Z,17.80
2017-06-13T03:43:40.987Z,17.90
2017-06-13T03:46:08.512Z,17.60
2017-06-13T03:48:36.055Z,17.70
2017-06-13T03:51:04.379Z,17.70
2017-06-13T03:53:31.908Z,17.60
2017-06-13T03:55:59.503Z,17.60
2017-06-13T03:58:27.038Z,17.50
2017-06-13T04:00:54.615Z,17.60
2017-06-13T04:03:22.147Z,17.70
2017-06-13T04:05:49.732Z,17.80
2017-06-13T04:08:17.295Z,17.80
2017-06-13T04:10:44.843Z,17.80
2017-06-13T04:13:12.423Z,17.90
2017-06-13T04:15:40.067Z,17.90
2017-06-13T04:18:07.631Z,17.60
2017-06-13T04:20:35.189Z,17.50
2017-06-13T04:23:02.743Z,17.50
2017-06-13T04:25:30.306Z,17.70
2017-06-13T04:27:57.863Z,17.80
2017-06-13T04:30:25.423Z,17.60
2017-06-13T04:32:52.987Z,17.70
2017-06-13T04:35:20.543Z,17.70
2017-06-13T04:37:48.085Z,17.70
2017-06-13T04:40:15.611Z,17.50
2017-06-13T04:42:43.939Z,17.50
2017-06-13T04:45:11.463Z,17.50
2017-06-13T04:47:38.997Z,17.60
2017-06-13T04:50:07.327Z,17.70
2017-06-13T04:52:34.887Z,17.70
2017-06-13T04:55:02.464Z,17.50
2017-06-13T04:57:30.103Z,17.30
2017-06-13T04:59:57.663Z,17.40
2017-06-13T05:02:25.223Z,17.30
2017-06-13T05:04:52.786Z,17.20
2017-06-13T05:07:24.034Z,17.30
2017-06-13T05:09:51.599Z,17.40
2017-06-13T05:12:21.209Z,17.40
2017-06-13T05:14:48.855Z,17.40
2017-06-13T05:17:16.412Z,17.40
2017-06-13T05:19:43.971Z,17.30
2017-06-13T05:22:11.541Z,17.30
2017-06-13T05:24:39.087Z,17.40
2017-06-13T05:27:06.737Z,17.40
2017-06-13T05:29:34.400Z,17.50
2017-06-13T05:32:02.079Z,17.60
2017-06-13T05:34:29.631Z,17.70
2017-06-13T05:36:57.163Z,17.80
2017-06-13T05:39:24.759Z,17.90
2017-06-13T05:41:52.312Z,17.90
2017-06-13T05:44:19.863Z,17.80
2017-06-13T05:46:47.430Z,18.10
2017-06-13T05:49:14.983Z,18.20
2017-06-13T05:51:42.551Z,18.40
2017-06-13T05:54:10.104Z,18.40
2017-06-13T05:56:37.672Z,18.30
2017-06-13T05:59:05.205Z,18.30
2017-06-13T06:01:32.777Z,18.20
2017-06-13T06:04:00.338Z,18.30
2017-06-13T06:06:27.895Z,18.20
2017-06-13T06:08:55.460Z,18.20
2017-06-13T06:11:22.991Z,18.20
2017-06-13T06:13:50.583Z,18.30
2017-06-13T06:16:18.235Z,18.50
2017-06-13T06:18:45.799Z,18.50
2017-06-13T06:21:13.331Z,18.70
2017-06-13T06:23:40.863Z,18.70
2017-06-13T06:26:09.187Z,18.60
2017-06-13T06:28:36.729Z,18.60
2017-06-13T06:31:04.303Z,18.50
2017-06-13T06:33:31.859Z,18.50
2017-06-13T06:35:59.423Z,18.60
2017-06-13T06:38:26.983Z,18.40
2017-06-13T06:40:54.514Z,18.30
2017-06-13T06:43:22.095Z,18.40
2017-06-13T06:45:49.659Z,18.50
2017-06-13T06:48:17.220Z,18.80
2017-06-13T06:50:44.751Z,18.90
2017-06-13T06:53:12.335Z,19.00
2017-06-13T06:55:39.860Z,19.10
2017-06-13T06:58:07.457Z,19.20
2017-06-13T07:00:35.007Z,19.30
2017-06-13T07:03:02.566Z,19.50
2017-06-13T07:05:30.103Z,19.30
2017-06-13T07:07:57.687Z,19.40
2017-06-13T07:10:25.243Z,19.70
2017-06-13T07:12:52.803Z,19.80
2017-06-13T07:15:20.363Z,20.20
2017-06-13T07:17:47.923Z,20.20
2017-06-13T07:20:15.467Z,20.70
2017-06-13T07:22:43.039Z,20.60
2017-06-13T07:25:10.571Z,20.20
2017-06-13T07:27:38.155Z,20.10
2017-06-13T07:30:05.696Z,20.00
2017-06-13T07:32:33.272Z,20.00
2017-06-13T07:35:00.835Z,20.10
2017-06-13T07:37:28.395Z,20.00
2017-06-13T07:39:55.951Z,19.50
2017-06-13T07:42:23.511Z,19.50
2017-06-13T07:44:51.042Z,19.60
2017-06-13T07:47:18.627Z,19.80
2017-06-13T07:49:46.187Z,20.00
2017-06-13T07:52:13.747Z,20.10
2017-06-13T07:54:41.308Z,19.90
2017-06-13T07:57:08.863Z,19.80
2017-06-13T07:59:36.391Z,19.50
2017-06-13T08:02:03.984Z,19.70
2017-06-13T08:04:31.515Z,19.50
2017-06-13T08:06:59.095Z,19.30
2017-06-13T08:09:26.631Z,19.10
2017-06-13T08:11:54.215Z,19.10
2017-06-13T08:14:21.743Z,18.90
2017-06-13T08:16:49.330Z,18.70
2017-06-13T08:19:16.859Z,18.80
2017-06-13T08:21:44.439Z,19.20
2017-06-13T08:24:12.007Z,19.50
2017-06-13T08:26:39.568Z,19.60
2017-06-13T08:29:07.127Z,19.50
2017-06-13T08:31:34.660Z,19.40
2017-06-13T08:34:02.247Z,19.70
2017-06-13T08:36:29.803Z,20.00
2017-06-13T08:38:57.363Z,19.90
2017-06-13T08:41:24.920Z,19.80
2017-06-13T08:43:52.479Z,19.80
2017-06-13T08:46:20.035Z,20.00
2017-06-13T08:48:47.595Z,20.00
2017-06-13T08:51:15.128Z,19.40
2017-06-13T08:53:42.707Z,19.50
2017-06-13T08:56:10.276Z,19.50
2017-06-13T08:58:37.830Z,19.50
2017-06-13T09:01:05.391Z,19.80
2017-06-13T09:03:32.935Z,20.20
2017-06-13T09:06:00.511Z,20.40
2017-06-13T09:08:28.040Z,20.70
2017-06-13T09:10:55.623Z,20.90
2017-06-13T09:13:23.186Z,21.10
2017-06-13T09:15:50.707Z,20.90
2017-06-13T09:18:18.236Z,20.90
2017-06-13T09:20:45.764Z,20.70
2017-06-13T09:23:13.321Z,20.80
2017-06-13T09:25:40.874Z,20.70
2017-06-13T09:28:08.434Z,20.50
2017-06-13T09:30:35.990Z,20.30
2017-06-13T09:33:03.560Z,20.30
2017-06-13T09:35:31.111Z,20.20
2017-06-13T09:37:58.671Z,19.80
2017-06-13T09:40:26.199Z,19.70
2017-06-13T09:42:53.737Z,19.70
2017-06-13T09:45:22.066Z,20.00
2017-06-13T09:47:49.603Z,20.00
2017-06-13T09:50:17.179Z,20.30
2017-06-13T09:52:44.739Z,20.30
2017-06-13T09:55:12.266Z,20.50
2017-06-13T09:57:39.799Z,20.30
2017-06-13T10:00:08.095Z,20.40
2017-06-13T10:02:35.699Z,20.40
2017-06-13T10:05:03.252Z,20.70
2017-06-13T10:07:30.816Z,20.80
2017-06-13T10:09:58.349Z,20.80
2017-06-13T10:12:25.923Z,21.10
2017-06-13T10:14:53.485Z,21.30
2017-06-13T10:17:21.044Z,21.70
2017-06-13T10:19:48.603Z,21.80
2017-06-13T10:22:16.139Z,21.80
2017-06-13T10:24:43.724Z,21.60
2017-06-13T10:27:11.284Z,21.30
2017-06-13T10:29:38.835Z,21.20
2017-06-13T10:32:06.372Z,21.30
2017-06-13T10:34:33.963Z,21.00
2017-06-13T10:37:01.501Z,20.50
2017-06-13T10:39:29.041Z,20.60
2017-06-13T10:41:56.634Z,20.70
2017-06-13T10:44:24.263Z,20.50
2017-06-13T10:46:51.855Z,20.60
2017-06-13T10:49:19.411Z,20.90
2017-06-13T10:51:46.971Z,20.70
2017-06-13T10:54:14.531Z,20.40
2017-06-13T10:56:42.070Z,20.70
2017-06-13T10:59:09.647Z,20.60
2017-06-13T11:01:37.193Z,20.50
2017-06-13T11:04:04.731Z,20.60
2017-06-13T11:06:32.331Z,20.70
2017-06-13T11:08:59.859Z,20.60
2017-06-13T11:11:27.393Z,20.60
2017-06-13T11:13:55.720Z,20.60
2017-06-13T11:16:23.255Z,20.60
2017-06-13T11:18:50.830Z,20.80
2017-06-13T11:21:18.395Z,21.00
2017-06-13T11:23:45.951Z,21.30
2017-06-13T11:26:13.515Z,21.30
2017-06-13T11:28:41.066Z,21.00
2017-06-13T11:31:08.631Z,21.10
2017-06-13T11:33:36.197Z,21.50
2017-06-13T11:36:03.747Z,21.50
2017-06-13T11:38:31.304Z,21.40
2017-06-13T11:40:58.844Z,21.80
2017-06-13T11:43:26.432Z,22.40
2017-06-13T11:45:53.971Z,22.60
2017-06-13T11:48:21.543Z,22.60
2017-06-13T11:50:49.103Z,22.30
2017-06-13T11:53:16.654Z,22.80
2017-06-13T11:55:44.215Z,23.20
2017-06-13T11:58:11.779Z,23.40
2017-06-13T12:00:39.338Z,23.40
2017-06-13T12:03:06.867Z,23.60
2017-06-13T12:05:34.387Z,23.60
2017-06-13T12:08:02.015Z,23.40
2017-06-13T12:10:29.556Z,23.50
2017-06-13T12:12:57.087Z,23.10
2017-06-13T12:15:24.618Z,23.10
2017-06-13T12:17:52.244Z,23.20
2017-06-13T12:20:19.773Z,23.20
2017-06-13T12:22:47.371Z,23.60
2017-06-13T12:25:14.900Z,24.10
2017-06-13T12:27:42.484Z,24.40
2017-06-13T12:30:10.044Z,24.60
2017-06-13T12:32:37.571Z,24.70
2017-06-13T12:35:05.156Z,24.80
2017-06-13T12:37:32.683Z,25.00
2017-06-13T12:40:00.275Z,25.10
2017-06-13T12:42:27.835Z,25.10
2017-06-13T12:44:55.391Z,25.30
2017-06-13T12:47:22.950Z,25.10
2017-06-13T12:49:50.511Z,25.00
2017-06-13T12:52:18.068Z,24.60
2017-06-13T12:54:45.634Z,24.10
2017-06-13T12:57:13.187Z,24.00
2017-06-13T12:59:40.743Z,24.10
2017-06-13T13:02:08.307Z,24.10
2017-06-13T13:04:35.865Z,24.10
2017-06-13T13:07:03.399Z,23.80
2017-06-13T13:09:33.096Z,23.90
2017-06-13T13:12:00.859Z,24.20
2017-06-13T13:14:28.392Z,24.10
2017-06-13T13:16:56.735Z,24.30
2017-06-13T13:19:24.755Z,24.30
2017-06-13T13:21:53.075Z,24.30
2017-06-13T13:24:20.648Z,24.30
2017-06-13T13:26:48.180Z,24.10
2017-06-13T13:29:15.755Z,24.30
2017-06-13T13:31:43.315Z,24.70
2017-06-13T13:34:10.871Z,24.80
2017-06-13T13:36:38.438Z,24.60
2017-06-13T13:39:06.502Z,24.40
2017-06-13T13:41:34.643Z,24.20
2017-06-13T13:44:02.856Z,24.40
2017-06-13T13:46:30.400Z,24.60
2017-06-13T13:48:58.070Z,24.50
2017-06-13T13:51:25.623Z,24.70
2017-06-13T13:53:53.195Z,24.40
2017-06-13T13:56:20.748Z,24.00
2017-06-13T13:58:48.327Z,23.60
2017-06-13T14:01:16.454Z,23.70
2017-06-13T14:03:44.038Z,23.90
2017-06-13T14:06:14.383Z,23.80
2017-06-13T14:08:42.453Z,23.70
2017-06-13T14:11:10.798Z,23.80
2017-06-13T14:13:40.147Z,24.10
2017-06-13T14:16:08.928Z,24.50
2017-06-13T14:18:37.202Z,24.40
2017-06-13T14:21:04.759Z,24.80
2017-06-13T14:23:32.903Z,25.00
2017-06-13T14:26:00.988Z,25.00
2017-06-13T14:28:29.040Z,24.90
2017-06-13T14:30:58.300Z,25.10
2017-06-13T14:33:27.583Z,25.50
2017-06-13T14:35:57.080Z,25.30
2017-06-13T14:38:25.567Z,25.30
2017-06-13T14:40:54.493Z,25.30
2017-06-13T14:43:22.528Z,25.30
2017-06-13T14:45:50.427Z,24.80
2017-06-13T14:48:19.745Z,24.80
2017-06-13T14:50:47.919Z,24.80
2017-06-13T14:53:15.967Z,24.80
2017-06-13T14:55:44.371Z,24.60
2017-06-13T15:01:25.288Z,24.50
2017-06-13T15:03:53.125Z,24.50
2017-06-13T15:06:20.718Z,24.60
2017-06-13T15:08:48.363Z,25.00
2017-06-13T15:11:15.887Z,24.70
2017-06-13T15:13:43.426Z,24.20
2017-06-13T15:16:11.727Z,23.50
2017-06-13T15:18:39.515Z,23.50
2017-06-13T15:21:07.076Z,23.70
2017-06-13T15:23:34.824Z,23.60
2017-06-13T15:26:02.406Z,23.70
2017-06-13T15:28:29.991Z,23.70
2017-06-13T15:30:57.524Z,23.90
2017-06-13T15:33:25.059Z,23.50
2017-06-13T15:35:52.640Z,23.20
2017-06-13T15:38:20.192Z,22.80
2017-06-13T15:40:47.955Z,22.60
2017-06-13T15:43:15.519Z,22.60
2017-06-13T15:45:43.071Z,22.70
2017-06-13T15:48:10.632Z,22.60
2017-06-13T15:50:38.159Z,22.40
2017-06-13T15:53:05.750Z,22.20
2017-06-13T15:55:33.307Z,22.20
2017-06-13T15:58:00.887Z,22.00
2017-06-13T16:00:28.541Z,21.90
2017-06-13T16:02:56.215Z,22.10
2017-06-13T16:05:23.927Z,22.00
2017-06-13T16:07:51.459Z,22.20
2017-06-13T16:10:19.773Z,22.60
2017-06-13T16:12:47.744Z,22.60
2017-06-13T16:15:15.315Z,22.60
2017-06-13T16:17:42.874Z,22.80
2017-06-13T16:20:10.435Z,22.90
2017-06-13T16:22:37.969Z,22.90
2017-06-13T16:25:05.528Z,22.60
2017-06-13T16:27:33.115Z,22.60
2017-06-13T16:30:00.799Z,22.60
2017-06-13T16:32:28.730Z,22.40
2017-06-13T16:34:56.296Z,22.00
2017-06-13T16:37:31.673Z,21.70
2017-06-13T16:39:59.608Z,21.80
2017-06-13T16:42:27.167Z,21.70
2017-06-13T16:44:54.923Z,21.60
2017-06-13T16:47:22.543Z,21.50
2017-06-13T16:49:50.972Z,21.30
2017-06-13T16:52:18.527Z,21.30
2017-06-13T16:54:46.068Z,21.10
2017-06-13T16:57:13.646Z,21.10
2017-06-13T16:59:41.206Z,21.20
2017-06-13T17:02:08.876Z,21.10
2017-06-13T17:04:36.617Z,21.10
2017-06-13T17:07:04.202Z,21.00
2017-06-13T17:09:31.955Z,21.10
2017-06-13T17:11:59.481Z,21.40
2017-06-13T17:14:27.074Z,21.80
2017-06-13T17:16:54.678Z,22.20
2017-06-13T17:19:23.404Z,22.00
2017-06-13T17:21:51.213Z,21.90
2017-06-13T17:24:18.851Z,21.80
2017-06-13T17:26:47.220Z,21.80
2017-06-13T17:29:14.760Z,21.50
2017-06-13T17:31:42.550Z,21.30
2017-06-13T17:34:10.250Z,21.30
2017-06-13T17:36:38.800Z,21.10
2017-06-13T17:39:07.340Z,21.10
2017-06-13T17:41:34.871Z,21.10
2017-06-13T17:44:03.203Z,21.10
2017-06-13T17:46:30.768Z,21.10
2017-06-13T17:48:58.323Z,21.20
2017-06-13T17:51:26.223Z,21.10
2017-06-13T17:53:53.759Z,21.40
2017-06-13T17:56:21.423Z,21.60
2017-06-13T17:58:48.973Z,21.30
2017-06-13T18:01:16.510Z,21.10
2017-06-13T18:03:44.127Z,21.20
2017-06-13T18:06:11.695Z,21.30
2017-06-13T18:08:40.069Z,21.30
2017-06-13T18:11:07.632Z,21.30
2017-06-13T18:13:35.960Z,20.90
2017-06-13T18:16:03.523Z,20.90
2017-06-13T18:18:31.084Z,21.00
2017-06-13T18:20:58.680Z,20.90
2017-06-13T18:23:26.272Z,21.00
2017-06-13T18:25:53.842Z,21.00
2017-06-13T18:28:21.425Z,20.90
2017-06-13T18:30:49.011Z,21.10
2017-06-13T18:33:17.325Z,21.40
2017-06-13T18:35:44.856Z,21.40
2017-06-13T18:38:13.179Z,21.50
2017-06-13T18:40:40.726Z,21.50
2017-06-13T18:43:08.255Z,21.30
2017-06-13T18:45:36.579Z,21.20
2017-06-13T18:48:04.139Z,21.20
2017-06-13T18:50:31.697Z,21.10
2017-06-13T18:52:59.259Z,21.20
2017-06-13T18:55:26.799Z,21.10
2017-06-13T18:57:54.371Z,21.20
2017-06-13T19:00:21.948Z,21.00
2017-06-13T19:02:49.491Z,21.10
2017-06-13T19:05:17.022Z,21.00
2017-06-13T19:07:44.560Z,21.00
2017-06-13T19:10:12.882Z,21.20
2017-06-13T19:12:40.667Z,21.20
2017-06-13T19:15:08.323Z,21.20
2017-06-13T19:17:35.972Z,21.50
2017-06-13T19:20:03.518Z,21.50
2017-06-13T19:22:31.047Z,21.60
2017-06-13T19:24:58.621Z,21.30
2017-06-13T19:27:26.222Z,20.90
2017-06-13T19:29:53.763Z,21.00
2017-06-13T19:32:21.324Z,21.30
2017-06-13T19:34:49.386Z,21.40
2017-06-13T19:37:17.563Z,21.40
2017-06-13T19:39:45.126Z,21.30
2017-06-13T19:42:12.687Z,21.40
2017-06-13T19:44:40.242Z,21.30
2017-06-13T19:47:07.803Z,21.10
2017-06-13T19:49:35.450Z,20.80
2017-06-13T19:52:03.024Z,20.80
2017-06-13T19:54:30.637Z,20.70
2017-06-13T19:56:58.970Z,20.50
2017-06-13T19:59:27.480Z,20.50
2017-06-13T20:01:55.819Z,20.30
2017-06-13T20:04:23.355Z,20.30
2017-06-13T20:06:50.936Z,20.50
2017-06-13T20:09:19.007Z,20.60
2017-06-13T20:11:47.450Z,20.70
2017-06-13T20:14:15.054Z,20.60
2017-06-13T20:16:42.592Z,20.70
2017-06-13T20:19:10.165Z,20.60
2017-06-13T20:21:43.535Z,20.30
2017-06-13T20:24:11.063Z,20.20
2017-06-13T20:26:39.363Z,20.40
2017-06-13T20:29:12.570Z,20.40
2017-06-13T20:31:40.233Z,20.50
2017-06-13T20:34:07.771Z,20.90
2017-06-13T20:36:35.363Z,20.80
2017-06-13T20:39:02.888Z,20.80
2017-06-13T20:41:30.479Z,21.00
2017-06-13T20:43:58.040Z,20.60
2017-06-13T20:46:32.126Z,20.50
2017-06-13T20:48:59.916Z,20.30
2017-06-13T20:51:27.564Z,20.50
2017-06-13T20:53:55.100Z,20.50
2017-06-13T20:56:22.695Z,20.30
2017-06-13T20:58:50.227Z,20.20
2017-06-13T21:01:17.830Z,20.00
2017-06-13T21:03:45.353Z,19.80
2017-06-13T21:06:12.878Z,19.90
2017-06-13T21:08:41.175Z,20.20
2017-06-13T21:11:08.699Z,20.10
2017-06-13T21:13:36.335Z,20.10
2017-06-13T21:16:03.884Z,20.10
2017-06-13T21:18:31.443Z,20.00
2017-06-13T21:20:58.999Z,19.50
2017-06-13T21:23:26.559Z,19.40
2017-06-13T21:25:54.119Z,19.30
2017-06-13T21:28:21.651Z,19.30
2017-06-13T21:30:49.171Z,19.10
2017-06-13T21:33:16.694Z,19.00
2017-06-13T21:35:44.252Z,19.10
2017-06-13T21:38:11.796Z,19.00
2017-06-13T21:40:39.327Z,19.00
2017-06-13T21:43:06.927Z,19.30
2017-06-13T21:45:34.488Z,19.50
2017-06-13T21:48:02.043Z,19.50
2017-06-13T21:50:29.604Z,19.10
2017-06-13T21:52:57.163Z,19.20
2017-06-13T21:55:24.719Z,18.80
2017-06-13T21:57:52.282Z,19.00
2017-06-13T22:00:19.819Z,18.80
2017-06-13T22:02:47.363Z,18.60
2017-06-13T22:05:14.900Z,18.50
2017-06-13T22:07:43.231Z,18.50
2017-06-13T22:10:10.791Z,18.50
2017-06-13T22:12:38.322Z,18.50
2017-06-13T22:15:05.913Z,18.50
2017-06-13T22:17:33.467Z,18.30
2017-06-13T22:20:01.027Z,18.30
2017-06-13T22:22:28.588Z,18.20
2017-06-13T22:24:56.143Z,18.30
2017-06-13T22:27:23.678Z,18.20
2017-06-13T22:29:51.267Z,18.40
2017-06-13T22:32:18.820Z,18.50
2017-06-13T22:34:46.380Z,18.30
2017-06-13T22:37:13.915Z,18.20
2017-06-13T22:39:41.709Z,18.20
2017-06-13T22:42:09.259Z,18.40
2017-06-13T22:44:36.823Z,18.80
2017-06-13T22:47:04.360Z,18.90
2017-06-13T22:49:31.935Z,18.90
2017-06-13T22:51:59.498Z,18.50
2017-06-13T22:54:27.055Z,18.60
2017-06-13T22:56:54.578Z,18.50
2017-06-13T22:59:22.172Z,18.40
2017-06-13T23:01:49.732Z,18.80
2017-06-13T23:04:17.291Z,18.60
2017-06-13T23:06:44.852Z,18.90
2017-06-13T23:09:12.408Z,19.00
2017-06-13T23:11:39.936Z,19.20
2017-06-13T23:14:07.523Z,19.00
2017-06-13T23:16:35.087Z,19.00
2017-06-13T23:19:02.643Z,19.10
2017-06-13T23:21:30.175Z,19.40
2017-06-13T23:23:57.707Z,19.50
2017-06-13T23:26:26.035Z,19.20
2017-06-13T23:28:53.594Z,19.20
2017-06-13T23:31:21.165Z,19.20
2017-06-13T23:33:48.716Z,18.70
2017-06-13T23:36:16.275Z,18.80
2017-06-13T23:38:43.828Z,19.00
2017-06-13T23:41:11.494Z,19.10
2017-06-13T23:43:39.027Z,19.00
2017-06-13T23:46:06.558Z,19.10
2017-06-13T23:48:34.891Z,18.90
2017-06-13T23:51:02.439Z,18.90
2017-06-13T23:53:30.000Z,18.90
2017-06-13T23:55:57.565Z,18.70
2017-06-13T23:58:25.123Z,18.80
